MMPR/PVR METAR and TAF weather

Enter ICAO airport designator
Station Type Date Time Source
MMPR METAR 2022/05/25 00:46 UTC NOAA

MMPR 250046Z 23008KT 12SM FEW035 26/21 A2979 RMK 8/500 CI HZY


Station Type Date Time Source
MMPR Decoded METAR 2022/05/25 00:46 UTC NOAA

Puerto Vallarta / Lic, Mexico (MMPR) 20-41N 105-15W
May 24, 2022 - 08:46 PM EDT / 2022.05.25 0046 UTC
Wind: from the SW (230 degrees) at 9 MPH (8 KT):0
Visibility: 12 mile(s):0
Sky conditions: mostly clear
Temperature: 78 F (26 C)
Dew Point: 69 F (21 C)
Relative Humidity: 73%
Pressure (altimeter): 29.79 in. Hg (1008 hPa)
ob: MMPR 250046Z 23008KT 12SM FEW035 26/21 A2979 RMK 8/500 CI HZY
cycle: 1

Station Type Date Time Source
MMPR TAF 2022/05/24 18:47 UTC NOAA

TAF MMPR 241625Z 2418/2524 22010KT P6SM SKC TX28/2420Z TN22/2512Z
BECMG 2421/2422 SCT020
FM250300 04004KT P6SM BKN015
BECMG 2514/2515 SCT015
FM251700 22010KT P6SM SKC

Example: see airport list